Messwerte Balzers

Temperatur

Temperatur
°C
1518980400 20.00 20.00 1.8
1518984000 21.00 21.00 1.6
1518987600 22.00 22.00 1.6
1518991200 23.00 23.00 1.4
1518994800 0.00 0.00 1.4
1518998400 1.00 1.00 1.3
1519002000 2.00 2.00 1.2
1519005600 3.00 3.00 1.1
1519009200 4.00 4.00 0.9
1519012800 5.00 5.00 0.8
1519016400 6.00 6.00
1519020000 7.00 7.00 0.7
1519023600 8.00 8.00 0.4
1519027200 9.00 9.00 0.5
1519030800 10.00 10.00 2.4
1519034400 11.00 11.00 2.7
1519038000 12.00 12.00 4.2
1519041600 13.00 13.00 3.7
1519045200 14.00 14.00 4.1
1519048800 15.00 15.00 3.2
1519052400 16.00 16.00 2.9
1519056000 17.00 17.00 2.7
1519059600 18.00 18.00 2.5
1519063200 19.00 19.00

Wir danken unserem Partner:

Aktuellste Messwerte

Temperatur
1.6 °C
Feuchtigkeit
80 %
Wind
5 km/hWindrichtung: Nord
Böen
8 km/h
Luftdruck
1017.0 hPa
Globalstrahlung
0 W/m²
Messzeit: 19. Februar 2018, 20.00Datenquelle: MeteoNews Partner, PWS Balzers

Webcams

Weitere Messstationen in der Nähe

Messstation Temperatur Entfernung
Bad Ragaz 1.1 °C 3 km
Vaduz 1.2 °C 8 km
Schiers 0.6 °C 17 km
Tannenboden/Flumserberge -5.3 °C 17 km
Maschgenkamm/Flumserberge -6.0 °C 19 km
Chur 1.6 °C 21 km
Säntis -11.0 °C 24 km

Niederschlag

Niederschlagsmenge
mm
1518980400 20.00 19.00 - 20.00
1518984000 21.00 20.00 - 21.00
1518987600 22.00 21.00 - 22.00
1518991200 23.00 22.00 - 23.00
1518994800 0.00 23.00 - 0.00
1518998400 1.00 0.00 - 1.00
1519002000 2.00 1.00 - 2.00
1519005600 3.00 2.00 - 3.00
1519009200 4.00 3.00 - 4.00
1519012800 5.00 4.00 - 5.00
1519016400 6.00 5.00 - 6.00
1519020000 7.00 6.00 - 7.00
1519023600 8.00 7.00 - 8.00 0.0
1519027200 9.00 8.00 - 9.00
1519030800 10.00 9.00 - 10.00
1519034400 11.00 10.00 - 11.00
1519038000 12.00 11.00 - 12.00
1519041600 13.00 12.00 - 13.00
1519045200 14.00 13.00 - 14.00
1519048800 15.00 14.00 - 15.00
1519052400 16.00 15.00 - 16.00
1519056000 17.00 16.00 - 17.00
1519059600 18.00 17.00 - 18.00
1519063200 19.00 18.00 - 19.00

Wind

Windrichtung Böen Mittelwind
° km/h km/h
1518980400 20.00 19.00 - 20.00 30° 10 6
1518984000 21.00 20.00 - 21.00 40° 10 5
1518987600 22.00 21.00 - 22.00 40° 6 3
1518991200 23.00 22.00 - 23.00 50° 6 3
1518994800 0.00 23.00 - 0.00 50° 0 0
1518998400 1.00 0.00 - 1.00 40° 2 1
1519002000 2.00 1.00 - 2.00 40° 2 1
1519005600 3.00 2.00 - 3.00 10° 6 3
1519009200 4.00 3.00 - 4.00 30° 8 5
1519012800 5.00 4.00 - 5.00 360° 4 1
1519016400 6.00 5.00 - 6.00
1519020000 7.00 6.00 - 7.00 150° 4 0
1519023600 8.00 7.00 - 8.00 160° 4 1
1519027200 9.00 8.00 - 9.00 190° 6 3
1519030800 10.00 9.00 - 10.00 140° 15 8
1519034400 11.00 10.00 - 11.00 220° 4 3
1519038000 12.00 11.00 - 12.00 10° 15 5
1519041600 13.00 12.00 - 13.00 20° 14 9
1519045200 14.00 13.00 - 14.00 10° 19 11
1519048800 15.00 14.00 - 15.00 330° 21 11
1519052400 16.00 15.00 - 16.00 350° 17 8
1519056000 17.00 16.00 - 17.00 360° 10 8
1519059600 18.00 17.00 - 18.00 330° 12 7
1519063200 19.00 18.00 - 19.00

Ihre Wetterstation

Fehlt Ihre Wetterstation auf unserem Portal?

Schreiben Sie an network@meteonews.ch

Klima

Wann ist es am wärmsten? Wann regnet es am wenigsten? Unsere Klimadaten geben Auskunft.